地図

経路データ

SID SEASON NUMBER BASIN SUBBASIN NAME ISO_TIME NATURE LAT LON WMO_WIND WMO_PRES WMO_AGENCY TRACK_TYPE DIST2LAND LANDFALL IFLAG USA_AGENCY USA_ATCF_ID USA_LAT USA_LON USA_RECORD USA_STATUS USA_WIND USA_PRES USA_SSHS USA_R34_NE USA_R34_SE USA_R34_SW USA_R34_NW USA_R50_NE USA_R50_SE USA_R50_SW USA_R50_NW USA_R64_NE USA_R64_SE USA_R64_SW USA_R64_NW USA_POCI USA_ROCI USA_RMW USA_EYE TOKYO_LAT TOKYO_LON TOKYO_GRADE TOKYO_WIND TOKYO_PRES TOKYO_R50_DIR TOKYO_R50_LONG TOKYO_R50_SHORT TOKYO_R30_DIR TOKYO_R30_LONG TOKYO_R30_SHORT TOKYO_LAND CMA_LAT CMA_LON CMA_CAT CMA_WIND CMA_PRES HKO_LAT HKO_LON HKO_CAT HKO_WIND HKO_PRES NEWDELHI_LAT NEWDELHI_LON NEWDELHI_GRADE NEWDELHI_WIND NEWDELHI_PRES NEWDELHI_CI NEWDELHI_DP NEWDELHI_POCI REUNION_LAT REUNION_LON REUNION_TYPE REUNION_WIND REUNION_PRES REUNION_TNUM REUNION_CI REUNION_RMW REUNION_R34_NE REUNION_R34_SE REUNION_R34_SW REUNION_R34_NW REUNION_R50_NE REUNION_R50_SE REUNION_R50_SW REUNION_R50_NW REUNION_R64_NE REUNION_R64_SE REUNION_R64_SW REUNION_R64_NW BOM_LAT BOM_LON BOM_TYPE BOM_WIND BOM_PRES BOM_TNUM BOM_CI BOM_RMW BOM_R34_NE BOM_R34_SE BOM_R34_SW BOM_R34_NW BOM_R50_NE BOM_R50_SE BOM_R50_SW BOM_R50_NW BOM_R64_NE BOM_R64_SE BOM_R64_SW BOM_R64_NW BOM_ROCI BOM_POCI BOM_EYE BOM_POS_METHOD BOM_PRES_METHOD NADI_LAT NADI_LON NADI_CAT NADI_WIND NADI_PRES WELLINGTON_LAT WELLINGTON_LON WELLINGTON_WIND WELLINGTON_PRES DS824_LAT DS824_LON DS824_STAGE DS824_WIND DS824_PRES TD9636_LAT TD9636_LON TD9636_STAGE TD9636_WIND TD9636_PRES TD9635_LAT TD9635_LON TD9635_WIND TD9635_PRES TD9635_ROCI NEUMANN_LAT NEUMANN_LON NEUMANN_CLASS NEUMANN_WIND NEUMANN_PRES MLC_LAT MLC_LON MLC_CLASS MLC_WIND MLC_PRES USA_GUST BOM_GUST BOM_GUST_PER REUNION_GUST REUNION_GUST_PER USA_SEAHGT USA_SEARAD_NE USA_SEARAD_SE USA_SEARAD_SW USA_SEARAD_NW STORM_SPEED STORM_DIR
1880275N35327 1880 25 NA NA NOT_NAMED 1880-09-30 18:00:00 TS 35.3000 -32.8000 main 1696 1665 _____________O -1 35.3000 -32.8000 HU 80 26 38
1880275N35327 1880 25 NA NA NOT_NAMED 1880-09-30 21:00:00 TS 36.3290 -31.8125 main 1663 1633 _____________P -1 36.3290 -31.8125 HU 77 24 42
1880275N35327 1880 25 NA NA NOT_NAMED 1880-10-01 00:00:00 TS 37.1000 -30.8000 main 1631 1578 _____________O -1 37.1000 -30.8000 HU 75 982 20 55
1880275N35327 1880 25 NA NA NOT_NAMED 1880-10-01 03:00:00 TS 37.4544 -29.7810 main 1584 1528 _____________P -1 37.4544 -29.7810 HU 75 17 73
1880275N35327 1880 25 NA NA NOT_NAMED 1880-10-01 06:00:00 TS 37.6000 -28.8000 main 1522 1477 _____________O -1 37.6000 -28.8000 HU 75 15 77
1880275N35327 1880 25 NA NA NOT_NAMED 1880-10-01 09:00:00 TS 37.7918 -27.8688 main 1477 1436 _____________P -1 37.7918 -27.8688 HU 72 15 74
1880275N35327 1880 25 NA NA NOT_NAMED 1880-10-01 12:00:00 TS 38.0000 -27.0000 main 1436 1410 _____________O -1 38.0000 -27.0000 HU 70 14 69
1880275N35327 1880 25 NA NA NOT_NAMED 1880-10-01 15:00:00 TS 38.3069 -26.1706 main 1413 1374 _____________P -1 38.3069 -26.1706 HU 67 14 64
1880275N35327 1880 25 NA NA NOT_NAMED 1880-10-01 18:00:00 TS 38.6000 -25.4000 main 1374 1320 _____________O -1 38.6000 -25.4000 HU 65 12 65
1880275N35327 1880 25 NA NA NOT_NAMED 1880-10-01 21:00:00 TS 38.8074 -24.7675 main 1320 1259 _____________P -1 38.8074 -24.7675 HU 62 11 75
1880275N35327 1880 25 NA NA NOT_NAMED 1880-10-02 00:00:00 ET 38.9000 -24.0000 main 1250 1148 _____________O -1 38.9000 -24.0000 EX 60 16 89
1880275N35327 1880 25 NA NA NOT_NAMED 1880-10-02 03:00:00 ET 38.8330 -22.7555 main 1148 1045 _____________P -1 38.8330 -22.7555 EX 60 20 96
1880275N35327 1880 25 NA NA NOT_NAMED 1880-10-02 06:00:00 ET 38.7000 -21.5000 main 1036 968 _____________O -1 38.7000 -21.5000 EX 60 16 97
1880275N35327 1880 25 NA NA NOT_NAMED 1880-10-02 09:00:00 ET 38.6403 -20.6757 main 968 908 _____________P -1 38.6403 -20.6757 EX 60 12 95
1880275N35327 1880 25 NA NA NOT_NAMED 1880-10-02 12:00:00 ET 38.6000 -20.0000 main 908 847 _____________O -1 38.6000 -20.0000 EX 60 11 95
1880275N35327 1880 25 NA NA NOT_NAMED 1880-10-02 15:00:00 ET 38.5495 -19.2501 main 848 779 _____________P -1 38.5495 -19.2501 EX 60 12 95
1880275N35327 1880 25 NA NA NOT_NAMED 1880-10-02 18:00:00 ET 38.5000 -18.5000 main 779 720 _____________O -1 38.5000 -18.5000 EX 60 12 97
1880275N35327 1880 25 NA NA NOT_NAMED 1880-10-02 21:00:00 ET 38.4045 -17.7487 main 711 651 _____________P -1 38.4045 -17.7487 EX 60 12 95
1880275N35327 1880 25 NA NA NOT_NAMED 1880-10-03 00:00:00 ET 38.4000 -17.0000 main 651 589 _____________O -1 38.4000 -17.0000 EX 60 12 84
1880275N35327 1880 25 NA NA NOT_NAMED 1880-10-03 03:00:00 ET 38.5371 -16.2487 main 581 518 _____________P -1 38.5371 -16.2487 EX 60 13 67
1880275N35327 1880 25 NA NA NOT_NAMED 1880-10-03 06:00:00 ET 38.9000 -15.5000 main 518 460 _____________O -1 38.9000 -15.5000 EX 60 15 50
1880275N35327 1880 25 NA NA NOT_NAMED 1880-10-03 09:00:00 ET 39.5260 -14.7542 main 462 415 _____________P -1 39.5260 -14.7542 EX 60 18 40
1880275N35327 1880 25 NA NA NOT_NAMED 1880-10-03 12:00:00 ET 40.3000 -14.0000 main 415 _____________O -1 40.3000 -14.0000 EX 60 19 37

IBTrACS Databaseについて

本データベースは、米国NOAAが公開する1842年以降の世界の熱帯低気圧のベストトラックデータアーカイブInternational Best Track Archive for Climate Stewardship (IBTrACS)を、ウェブで閲覧しやすい形式に変換したものです。

最終更新日:2021-12-03